createdAt,value
2018-09-15T00:01:16.491Z,17.97
2018-09-15T00:03:44.975Z,17.17
2018-09-15T00:06:13.291Z,15.90
2018-09-15T00:08:41.663Z,17.63
2018-09-15T00:11:10.060Z,17.87
2018-09-15T00:13:38.431Z,17.13
2018-09-15T00:16:06.803Z,17.43
2018-09-15T00:18:35.183Z,16.20
2018-09-15T00:21:03.780Z,17.30
2018-09-15T00:23:32.129Z,17.00
2018-09-15T00:26:00.480Z,17.20
2018-09-15T00:28:28.842Z,17.43
2018-09-15T00:30:57.220Z,17.33
2018-09-15T00:33:25.523Z,16.50
2018-09-15T00:35:53.854Z,17.80
2018-09-15T00:38:22.218Z,16.27
2018-09-15T00:40:50.594Z,16.77
2018-09-15T00:43:18.950Z,18.60
2018-09-15T00:45:47.333Z,18.47
2018-09-15T00:48:15.725Z,17.43
2018-09-15T00:50:44.072Z,16.07
2018-09-15T00:53:12.386Z,20.23
2018-09-15T00:55:40.768Z,17.87
2018-09-15T00:58:09.130Z,17.47
2018-09-15T01:00:37.520Z,19.03
2018-09-15T01:03:06.144Z,19.17
2018-09-15T01:05:34.492Z,18.43
2018-09-15T01:08:02.862Z,17.87
2018-09-15T01:10:31.237Z,17.63
2018-09-15T01:12:59.587Z,17.33
2018-09-15T01:15:27.952Z,18.77
2018-09-15T01:17:56.300Z,18.97
2018-09-15T01:20:24.736Z,18.57
2018-09-15T01:22:53.112Z,19.33
2018-09-15T01:25:21.428Z,19.17
2018-09-15T01:27:50.062Z,18.43
2018-09-15T01:30:18.457Z,18.77
2018-09-15T01:32:46.771Z,19.40
2018-09-15T01:35:15.128Z,17.80
2018-09-15T01:37:43.728Z,20.10
2018-09-15T01:40:12.070Z,18.13
2018-09-15T01:42:40.441Z,16.43
2018-09-15T01:45:08.741Z,16.97
2018-09-15T01:47:37.156Z,15.60
2018-09-15T01:50:05.543Z,18.60
2018-09-15T01:52:33.903Z,18.50
2018-09-15T01:55:02.279Z,18.53
2018-09-15T01:57:30.704Z,17.37
2018-09-15T01:59:59.043Z,18.93
2018-09-15T02:02:27.679Z,19.73
2018-09-15T02:04:56.015Z,20.00
2018-09-15T02:07:24.411Z,20.77
2018-09-15T02:09:52.779Z,21.77
2018-09-15T02:12:21.136Z,20.27
2018-09-15T02:14:49.580Z,19.93
2018-09-15T02:17:17.941Z,20.17
2018-09-15T02:19:46.304Z,18.77
2018-09-15T02:22:14.694Z,19.17
2018-09-15T02:24:43.060Z,19.67
2018-09-15T02:27:11.458Z,18.67
2018-09-15T02:29:39.838Z,18.27
2018-09-15T02:32:08.162Z,18.77
2018-09-15T02:34:36.560Z,19.20
2018-09-15T02:37:04.976Z,18.83
2018-09-15T02:39:33.328Z,17.43
2018-09-15T02:42:01.677Z,17.30
2018-09-15T02:44:30.075Z,16.93
2018-09-15T02:46:58.456Z,15.30
2018-09-15T02:49:26.827Z,17.00
2018-09-15T02:51:55.166Z,15.93
2018-09-15T02:54:23.570Z,16.63
2018-09-15T02:56:51.921Z,16.20
2018-09-15T02:59:20.257Z,16.13
2018-09-15T03:01:48.614Z,16.70
2018-09-15T03:04:16.918Z,16.57
2018-09-15T03:06:45.269Z,18.27
2018-09-15T03:09:14.079Z,17.33
2018-09-15T03:11:42.445Z,18.63
2018-09-15T03:14:10.811Z,18.83
2018-09-15T03:16:39.491Z,19.30
2018-09-15T03:19:07.979Z,20.63
2018-09-15T03:21:36.339Z,19.47
2018-09-15T03:24:04.718Z,20.60
2018-09-15T03:26:33.075Z,20.23
2018-09-15T03:29:01.736Z,20.53
2018-09-15T03:31:30.105Z,19.90
2018-09-15T03:33:58.455Z,19.50
2018-09-15T03:36:26.808Z,19.77
2018-09-15T03:38:55.187Z,18.33
2018-09-15T03:41:23.606Z,18.40
2018-09-15T03:43:51.925Z,18.67
2018-09-15T03:46:20.314Z,17.70
2018-09-15T03:48:48.700Z,18.17
2018-09-15T03:51:17.088Z,17.87
2018-09-15T03:53:45.439Z,17.10
2018-09-15T03:56:14.149Z,17.27
2018-09-15T03:58:42.496Z,16.77
2018-09-15T04:01:10.871Z,15.97
2018-09-15T04:03:39.235Z,15.70
2018-09-15T04:06:07.840Z,16.97
2018-09-15T04:08:36.220Z,16.63
2018-09-15T04:11:04.581Z,16.30
2018-09-15T04:13:33.280Z,15.70
2018-09-15T04:16:01.632Z,15.40
2018-09-15T04:18:29.989Z,15.10
2018-09-15T04:20:58.352Z,14.93
2018-09-15T04:23:26.712Z,15.33
2018-09-15T04:25:55.068Z,16.17
2018-09-15T04:28:23.497Z,15.37
2018-09-15T04:30:51.785Z,14.57
2018-09-15T04:33:20.126Z,14.80
2018-09-15T04:35:48.484Z,14.40
2018-09-15T04:38:16.810Z,14.60
2018-09-15T04:40:45.172Z,14.77
2018-09-15T04:43:13.504Z,14.63
2018-09-15T04:45:41.870Z,14.77
2018-09-15T04:48:10.229Z,15.53
2018-09-15T04:50:38.606Z,15.03
2018-09-15T04:53:06.960Z,14.47
2018-09-15T04:55:35.318Z,13.70
2018-09-15T04:58:03.726Z,14.07
2018-09-15T05:00:32.076Z,12.87
2018-09-15T05:03:00.540Z,14.17
2018-09-15T05:05:28.942Z,13.63
2018-09-15T05:07:57.308Z,14.00
2018-09-15T05:10:25.654Z,13.73
2018-09-15T05:12:54.099Z,13.60
2018-09-15T05:15:22.371Z,14.60
2018-09-15T05:17:50.719Z,13.90
2018-09-15T05:20:19.351Z,14.07
2018-09-15T05:22:47.738Z,14.43
2018-09-15T05:25:16.115Z,14.33
2018-09-15T05:27:44.475Z,15.70
2018-09-15T05:30:12.821Z,14.60
2018-09-15T05:32:41.633Z,14.50
2018-09-15T05:35:10.029Z,14.60
2018-09-15T05:37:38.395Z,15.37
2018-09-15T05:40:06.839Z,14.23
2018-09-15T05:42:35.191Z,15.13
2018-09-15T05:45:03.630Z,14.20
2018-09-15T05:47:32.214Z,14.77
2018-09-15T05:50:00.577Z,14.70
2018-09-15T05:52:28.930Z,14.73
2018-09-15T05:54:57.435Z,14.80
2018-09-15T05:57:25.820Z,15.00
2018-09-15T05:59:54.325Z,15.23
2018-09-15T06:02:23.004Z,14.90
2018-09-15T06:04:51.353Z,14.83
2018-09-15T06:07:19.883Z,13.80
2018-09-15T06:09:48.219Z,13.70
2018-09-15T06:12:16.634Z,14.27
2018-09-15T06:14:44.974Z,12.53
2018-09-15T06:17:13.384Z,12.87
2018-09-15T06:19:41.713Z,12.10
2018-09-15T06:22:10.078Z,12.40
2018-09-15T06:24:38.456Z,11.87
2018-09-15T06:27:06.842Z,13.00
2018-09-15T06:29:35.342Z,12.80
2018-09-15T06:32:03.782Z,12.47
2018-09-15T06:34:32.146Z,12.03
2018-09-15T06:37:00.882Z,12.77
2018-09-15T06:39:29.286Z,13.23
2018-09-15T06:41:57.634Z,12.63
2018-09-15T06:44:26.018Z,13.03
2018-09-15T06:46:54.400Z,13.20
2018-09-15T06:49:22.830Z,13.30
2018-09-15T06:51:51.226Z,13.27
2018-09-15T06:54:19.582Z,13.97
2018-09-15T06:56:47.910Z,13.27
2018-09-15T06:59:16.343Z,13.17
2018-09-15T07:01:44.722Z,13.27
2018-09-15T07:04:13.398Z,13.50
2018-09-15T07:06:43.152Z,13.00
2018-09-15T07:09:13.986Z,12.57
2018-09-15T07:11:42.364Z,18.57
2018-09-15T07:14:11.322Z,13.47
2018-09-15T07:16:40.302Z,12.50
2018-09-15T07:19:08.765Z,12.73
2018-09-15T07:21:37.151Z,13.07
2018-09-15T07:24:05.580Z,12.23
2018-09-15T07:26:34.082Z,13.40
2018-09-15T07:29:02.464Z,13.03
2018-09-15T07:31:30.866Z,12.80
2018-09-15T07:33:59.187Z,13.37
2018-09-15T07:36:27.583Z,12.40
2018-09-15T07:38:56.115Z,12.53
2018-09-15T07:41:24.537Z,12.53
2018-09-15T07:43:52.887Z,12.50
2018-09-15T07:46:21.301Z,12.07
2018-09-15T07:48:49.735Z,11.77
2018-09-15T07:51:18.083Z,11.50
2018-09-15T07:53:46.515Z,16.13
2018-09-15T07:56:16.181Z,12.37
2018-09-15T07:58:44.640Z,9.73
2018-09-15T08:01:14.509Z,10.30
2018-09-15T08:03:43.436Z,9.33
2018-09-15T08:06:16.932Z,8.93
2018-09-15T08:08:45.376Z,9.00
2018-09-15T08:11:13.786Z,7.50
2018-09-15T08:13:42.290Z,7.57
2018-09-15T08:16:11.396Z,13.33
2018-09-15T08:18:40.600Z,13.33
2018-09-15T08:21:09.050Z,7.60
2018-09-15T08:23:37.519Z,6.80
2018-09-15T08:26:06.329Z,5.97
2018-09-15T08:28:34.805Z,6.63
2018-09-15T08:31:03.284Z,6.00
2018-09-15T08:33:31.798Z,6.67
2018-09-15T08:36:00.236Z,5.50
2018-09-15T08:38:28.934Z,4.93
2018-09-15T08:40:57.398Z,5.40
2018-09-15T08:43:26.510Z,5.47
2018-09-15T08:45:58.992Z,6.00
2018-09-15T08:48:29.072Z,5.13
2018-09-15T08:50:57.627Z,6.07
2018-09-15T08:53:26.178Z,5.90
2018-09-15T08:55:55.233Z,4.67
2018-09-15T08:58:24.403Z,4.70
2018-09-15T09:00:55.006Z,4.60
2018-09-15T09:03:23.801Z,4.40
2018-09-15T09:05:52.299Z,4.33
2018-09-15T09:08:20.734Z,4.60
2018-09-15T09:10:49.295Z,4.27
2018-09-15T09:13:17.796Z,4.47
2018-09-15T09:15:46.292Z,4.83
2018-09-15T09:18:15.520Z,4.70
2018-09-15T09:20:44.025Z,3.57
2018-09-15T09:23:12.519Z,3.20
2018-09-15T09:25:41.733Z,3.03
2018-09-15T09:28:10.296Z,2.90
2018-09-15T09:30:38.869Z,2.90
2018-09-15T09:33:08.962Z,2.50
2018-09-15T09:35:37.784Z,2.80
2018-09-15T09:38:06.510Z,2.85
2018-09-15T09:40:34.969Z,2.80
2018-09-15T09:43:03.451Z,3.13
2018-09-15T09:45:31.875Z,2.23
2018-09-15T09:48:00.504Z,2.10
2018-09-15T09:50:29.233Z,2.70
2018-09-15T09:52:58.179Z,3.80
2018-09-15T09:55:27.057Z,1.50
2018-09-15T09:57:56.607Z,1.40
2018-09-15T10:00:31.247Z,1.30
2018-09-15T10:03:04.067Z,1.40
2018-09-15T10:05:32.613Z,3.42
2018-09-15T10:08:01.120Z,1.62
2018-09-15T10:10:29.666Z,1.37
2018-09-15T10:12:59.203Z,1.52
2018-09-15T10:15:27.688Z,1.50
2018-09-15T10:17:56.262Z,1.42
2018-09-15T10:20:24.736Z,1.50
2018-09-15T10:22:53.276Z,1.40
2018-09-15T10:25:21.783Z,4.57
2018-09-15T10:27:50.250Z,3.90
2018-09-15T10:30:18.758Z,1.70
2018-09-15T10:32:47.588Z,1.47
2018-09-15T10:35:16.104Z,1.27
2018-09-15T10:37:44.572Z,1.20
2018-09-15T10:40:13.064Z,1.40
2018-09-15T10:42:41.510Z,1.52
2018-09-15T10:45:09.972Z,1.23
2018-09-15T10:47:38.544Z,1.30
2018-09-15T10:50:07.938Z,1.20
2018-09-15T10:52:38.180Z,1.60
2018-09-15T10:55:06.762Z,1.20
2018-09-15T10:57:35.098Z,1.10
2018-09-15T11:00:03.562Z,1.35
2018-09-15T11:02:31.928Z,1.05
2018-09-15T11:05:00.350Z,1.32
2018-09-15T11:07:28.803Z,1.15
2018-09-15T11:09:57.169Z,1.15
2018-09-15T11:12:25.535Z,0.95
2018-09-15T11:14:53.940Z,1.37
2018-09-15T11:17:22.561Z,1.47
2018-09-15T11:19:50.926Z,0.90
2018-09-15T11:22:19.340Z,0.78
2018-09-15T11:24:47.722Z,6.60
2018-09-15T11:27:16.124Z,8.53
2018-09-15T11:29:44.502Z,0.88
2018-09-15T11:32:12.922Z,0.90
2018-09-15T11:34:41.312Z,1.00
2018-09-15T11:37:09.819Z,1.10
2018-09-15T11:39:38.220Z,0.93
2018-09-15T11:42:06.630Z,1.00
2018-09-15T11:44:35.033Z,0.70
2018-09-15T11:47:03.708Z,1.00
2018-09-15T11:49:32.065Z,1.27
2018-09-15T11:52:00.435Z,1.00
2018-09-15T11:54:28.835Z,0.87
2018-09-15T11:56:57.209Z,1.20
2018-09-15T11:59:25.690Z,1.30
2018-09-15T12:01:54.046Z,1.03
2018-09-15T12:04:22.407Z,0.97
2018-09-15T12:06:50.844Z,1.20
2018-09-15T12:09:19.179Z,1.10
2018-09-15T12:11:47.592Z,1.10
2018-09-15T12:14:16.025Z,1.40
2018-09-15T12:16:44.435Z,0.93
2018-09-15T12:19:12.757Z,1.10
2018-09-15T12:21:41.201Z,1.50
2018-09-15T12:24:09.569Z,1.60
2018-09-15T12:26:37.946Z,1.27
2018-09-15T12:29:06.373Z,1.17
2018-09-15T12:31:34.757Z,1.00
2018-09-15T12:34:03.136Z,1.10
2018-09-15T12:36:31.508Z,1.10
2018-09-15T12:38:59.905Z,1.30
2018-09-15T12:41:28.280Z,1.03
2018-09-15T12:43:56.664Z,1.20
2018-09-15T12:46:25.108Z,1.17
2018-09-15T12:48:53.488Z,1.10
2018-09-15T12:51:21.826Z,1.13
2018-09-15T12:53:50.172Z,1.00
2018-09-15T12:56:18.591Z,0.80
2018-09-15T12:58:47.068Z,1.10
2018-09-15T13:01:15.414Z,1.00
2018-09-15T13:03:43.817Z,0.87
2018-09-15T13:06:12.217Z,0.90
2018-09-15T13:08:40.608Z,0.90
2018-09-15T13:11:08.982Z,0.80
2018-09-15T13:13:37.414Z,0.90
2018-09-15T13:16:05.890Z,1.07
2018-09-15T13:18:34.275Z,1.40
2018-09-15T13:21:02.657Z,0.83
2018-09-15T13:23:31.062Z,0.90
2018-09-15T13:25:59.411Z,0.90
2018-09-15T13:28:28.837Z,0.93
2018-09-15T13:30:57.203Z,1.10
2018-09-15T13:33:25.557Z,0.87
2018-09-15T13:35:53.929Z,0.80
2018-09-15T13:38:22.331Z,1.13
2018-09-15T13:40:50.735Z,1.00
2018-09-15T13:43:19.085Z,1.20
2018-09-15T13:45:47.447Z,1.20
2018-09-15T13:48:15.831Z,1.10
2018-09-15T13:50:44.204Z,0.80
2018-09-15T13:53:12.675Z,1.00
2018-09-15T13:55:40.988Z,1.00
2018-09-15T13:58:09.375Z,0.90
2018-09-15T14:00:37.781Z,1.00
2018-09-15T14:03:06.307Z,1.10
2018-09-15T14:05:34.687Z,0.80
2018-09-15T14:08:03.077Z,1.07
2018-09-15T14:10:31.486Z,0.80
2018-09-15T14:12:59.871Z,0.73
2018-09-15T14:15:28.231Z,0.83
2018-09-15T14:17:56.631Z,1.10
2018-09-15T14:20:25.022Z,1.00
2018-09-15T14:22:53.444Z,0.87
2018-09-15T14:25:21.809Z,1.00
2018-09-15T14:27:50.162Z,0.90
2018-09-15T14:30:18.517Z,0.90
2018-09-15T14:32:46.848Z,1.00
2018-09-15T14:35:15.271Z,0.87
2018-09-15T14:37:43.589Z,0.90
2018-09-15T14:40:12.026Z,1.00
2018-09-15T14:42:40.396Z,0.80
2018-09-15T14:45:08.792Z,1.00
2018-09-15T14:47:37.188Z,1.13
2018-09-15T14:50:05.649Z,1.10
2018-09-15T14:52:34.041Z,1.03
2018-09-15T14:55:02.522Z,1.63
2018-09-15T14:57:30.877Z,2.03
2018-09-15T14:59:59.243Z,1.50
2018-09-15T15:02:27.644Z,0.93
2018-09-15T15:04:56.020Z,1.53
2018-09-15T15:07:24.408Z,1.30
2018-09-15T15:09:52.759Z,1.03
2018-09-15T15:12:21.128Z,1.10
2018-09-15T15:14:49.512Z,0.80
2018-09-15T15:17:17.984Z,0.80
2018-09-15T15:19:46.483Z,0.83
2018-09-15T15:22:14.749Z,0.90
2018-09-15T15:24:43.160Z,1.00
2018-09-15T15:27:11.559Z,1.30
2018-09-15T15:29:39.939Z,1.30
2018-09-15T15:32:08.318Z,0.93
2018-09-15T15:34:36.718Z,1.40
2018-09-15T15:37:05.232Z,0.97
2018-09-15T15:39:33.636Z,1.30
2018-09-15T15:42:01.991Z,1.07
2018-09-15T15:44:30.503Z,1.00
2018-09-15T15:46:58.872Z,1.20
2018-09-15T15:49:27.280Z,2.33
2018-09-15T15:51:55.775Z,1.20
2018-09-15T15:54:24.188Z,0.83
2018-09-15T15:56:52.611Z,1.10
2018-09-15T15:59:20.890Z,1.27
2018-09-15T16:01:49.296Z,1.33
2018-09-15T16:04:17.654Z,0.67
2018-09-15T16:06:45.994Z,0.80
2018-09-15T16:09:14.360Z,1.00
2018-09-15T16:11:42.769Z,0.97
2018-09-15T16:14:11.150Z,0.63
2018-09-15T16:16:39.585Z,0.70
2018-09-15T16:19:07.985Z,0.80
2018-09-15T16:21:36.410Z,0.80
2018-09-15T16:24:05.050Z,0.90
2018-09-15T16:26:33.463Z,1.23
2018-09-15T16:29:01.820Z,0.90
2018-09-15T16:31:30.214Z,1.07
2018-09-15T16:33:58.609Z,1.07
2018-09-15T16:36:27.117Z,1.10
2018-09-15T16:38:55.621Z,1.30
2018-09-15T16:41:23.979Z,1.23
2018-09-15T16:43:52.432Z,1.60
2018-09-15T16:46:20.821Z,1.23
2018-09-15T16:48:49.335Z,1.77
2018-09-15T16:51:17.720Z,1.20
2018-09-15T16:53:46.256Z,1.10
2018-09-15T16:56:14.702Z,1.50
2018-09-15T16:58:43.119Z,1.40
2018-09-15T17:01:11.483Z,1.40
2018-09-15T17:03:39.852Z,1.47
2018-09-15T17:06:08.236Z,1.20
2018-09-15T17:08:36.617Z,1.30
2018-09-15T17:11:05.126Z,1.10
2018-09-15T17:13:33.502Z,1.40
2018-09-15T17:16:01.870Z,1.43
2018-09-15T17:18:30.500Z,1.00
2018-09-15T17:20:58.881Z,1.50
2018-09-15T17:23:27.309Z,1.30
2018-09-15T17:25:55.637Z,1.40
2018-09-15T17:28:24.137Z,1.63
2018-09-15T17:30:53.001Z,2.20
2018-09-15T17:33:21.327Z,2.20
2018-09-15T17:35:49.785Z,1.33
2018-09-15T17:38:18.420Z,1.60
2018-09-15T17:40:46.776Z,1.70
2018-09-15T17:43:15.154Z,2.20
2018-09-15T17:45:43.669Z,2.50
2018-09-15T17:48:12.007Z,2.60
2018-09-15T17:50:40.402Z,2.57
2018-09-15T17:53:08.832Z,2.40
2018-09-15T17:55:37.999Z,1.80
2018-09-15T17:58:06.352Z,2.00
2018-09-15T18:00:34.835Z,2.00
2018-09-15T18:03:03.226Z,2.10
2018-09-15T18:05:31.607Z,1.70
2018-09-15T18:08:01.105Z,1.70
2018-09-15T18:10:29.752Z,1.87
2018-09-15T18:12:58.132Z,2.03
2018-09-15T18:15:26.530Z,2.13
2018-09-15T18:17:54.943Z,1.90
2018-09-15T18:20:23.311Z,1.80
2018-09-15T18:22:51.691Z,2.30
2018-09-15T18:25:20.061Z,2.10
2018-09-15T18:27:48.451Z,2.50
2018-09-15T18:30:16.811Z,2.33
2018-09-15T18:32:45.190Z,2.63
2018-09-15T18:35:13.523Z,2.30
2018-09-15T18:37:42.123Z,2.00
2018-09-15T18:40:10.522Z,2.60
2018-09-15T18:42:39.198Z,2.17
2018-09-15T18:45:07.623Z,2.10
2018-09-15T18:47:36.057Z,1.30
2018-09-15T18:50:04.709Z,1.50
2018-09-15T18:52:33.096Z,1.53
2018-09-15T18:55:01.472Z,1.57
2018-09-15T18:57:29.847Z,1.87
2018-09-15T18:59:58.340Z,1.70
2018-09-15T19:02:26.708Z,1.60
2018-09-15T19:04:55.184Z,1.93
2018-09-15T19:07:24.425Z,1.80
2018-09-15T19:09:52.829Z,1.83
2018-09-15T19:12:21.348Z,1.73
2018-09-15T19:14:49.791Z,1.90
2018-09-15T19:17:18.088Z,1.90
2018-09-15T19:19:47.476Z,1.80
2018-09-15T19:22:15.828Z,1.80
2018-09-15T19:24:44.528Z,2.00
2018-09-15T19:27:12.920Z,1.83
2018-09-15T19:29:41.351Z,1.73
2018-09-15T19:32:09.820Z,3.00
2018-09-15T19:34:38.190Z,2.40
2018-09-15T19:37:06.872Z,2.10
2018-09-15T19:39:35.326Z,2.33
2018-09-15T19:42:04.742Z,2.50
2018-09-15T19:44:33.162Z,2.00
2018-09-15T19:47:01.518Z,2.23
2018-09-15T19:49:29.891Z,2.50
2018-09-15T19:51:58.289Z,2.80
2018-09-15T19:54:26.670Z,2.70
2018-09-15T19:56:55.820Z,2.80
2018-09-15T19:59:24.683Z,2.60
2018-09-15T20:01:53.034Z,3.20
2018-09-15T20:04:21.730Z,4.17
2018-09-15T20:06:50.130Z,4.30
2018-09-15T20:09:18.497Z,5.37
2018-09-15T20:11:47.504Z,4.70
2018-09-15T20:14:15.947Z,4.40
2018-09-15T20:16:43.213Z,5.23
2018-09-15T20:19:10.542Z,8.53
2018-09-15T20:21:37.852Z,7.27
2018-09-15T20:24:06.288Z,12.67
2018-09-15T20:26:35.079Z,23.20
2018-09-15T20:29:03.435Z,17.80
2018-09-15T20:31:31.901Z,13.20
2018-09-15T20:34:00.216Z,10.57
2018-09-15T20:36:28.620Z,10.23
2018-09-15T20:38:57.705Z,6.50
2018-09-15T20:41:26.111Z,5.70
2018-09-15T20:43:54.515Z,5.47
2018-09-15T20:46:22.885Z,7.40
2018-09-15T20:48:51.361Z,7.80
2018-09-15T20:51:19.733Z,6.07
2018-09-15T20:53:48.155Z,5.50
2018-09-15T20:56:16.576Z,5.67
2018-09-15T20:58:44.915Z,6.40
2018-09-15T21:01:13.512Z,5.30
2018-09-15T21:03:41.876Z,5.90
2018-09-15T21:06:10.235Z,5.67
2018-09-15T21:08:38.579Z,5.90
2018-09-15T21:11:06.981Z,7.40
2018-09-15T21:13:35.316Z,9.80
2018-09-15T21:16:03.872Z,10.30
2018-09-15T21:18:32.403Z,10.87
2018-09-15T21:21:00.785Z,11.67
2018-09-15T21:23:29.571Z,10.03
2018-09-15T21:25:57.992Z,8.17
2018-09-15T21:28:26.598Z,9.60
2018-09-15T21:30:54.973Z,8.50
2018-09-15T21:33:23.376Z,10.47
2018-09-15T21:35:51.735Z,8.73
2018-09-15T21:38:20.541Z,10.10
2018-09-15T21:40:48.932Z,9.37
2018-09-15T21:43:17.316Z,9.23
2018-09-15T21:45:45.676Z,12.10
2018-09-15T21:48:14.380Z,12.87
2018-09-15T21:50:42.746Z,13.03
2018-09-15T21:53:11.086Z,12.47
2018-09-15T21:55:39.467Z,11.93
2018-09-15T21:58:07.836Z,12.97
2018-09-15T22:00:36.290Z,13.50
2018-09-15T22:03:04.673Z,12.13
2018-09-15T22:05:33.073Z,13.00
2018-09-15T22:08:01.471Z,12.23
2018-09-15T22:10:29.940Z,13.40
2018-09-15T22:12:58.274Z,14.23
2018-09-15T22:15:27.744Z,13.70
2018-09-15T22:17:57.637Z,12.83
2018-09-15T22:20:26.149Z,13.40
2018-09-15T22:22:54.515Z,13.03
2018-09-15T22:25:22.998Z,14.80
2018-09-15T22:27:51.400Z,15.07
2018-09-15T22:30:19.868Z,15.77
2018-09-15T22:32:48.260Z,12.67
2018-09-15T22:35:17.299Z,12.27
2018-09-15T22:37:45.890Z,11.50
2018-09-15T22:40:14.276Z,10.20
2018-09-15T22:42:42.700Z,9.83
2018-09-15T22:45:11.021Z,10.87
2018-09-15T22:47:39.350Z,11.47
2018-09-15T22:50:07.715Z,9.20
2018-09-15T22:52:36.657Z,9.57
2018-09-15T22:55:05.011Z,10.00
2018-09-15T22:57:33.688Z,10.40
2018-09-15T23:00:02.256Z,9.57
2018-09-15T23:02:31.734Z,10.43
2018-09-15T23:05:00.078Z,9.80
2018-09-15T23:07:28.436Z,10.27
2018-09-15T23:09:57.172Z,9.57
2018-09-15T23:12:25.545Z,9.07
2018-09-15T23:14:53.924Z,8.63
2018-09-15T23:17:22.264Z,8.13
2018-09-15T23:19:50.597Z,8.07
2018-09-15T23:22:18.928Z,7.80
2018-09-15T23:24:47.272Z,7.30
2018-09-15T23:27:15.899Z,8.23
2018-09-15T23:29:44.250Z,7.80
2018-09-15T23:32:12.618Z,8.67
2018-09-15T23:34:41.022Z,8.57
2018-09-15T23:37:09.372Z,8.90
2018-09-15T23:39:37.710Z,9.37
2018-09-15T23:42:06.108Z,8.93
2018-09-15T23:44:34.442Z,9.77
2018-09-15T23:47:02.828Z,8.63
2018-09-15T23:49:31.198Z,8.70
2018-09-15T23:51:59.668Z,7.27
2018-09-15T23:54:28.346Z,7.00
2018-09-15T23:56:57.296Z,7.03
2018-09-15T23:59:25.680Z,5.93
